Time;durP1;ratioP1;P1;durP2;ratioP2;P2;SDS_P1;SDS_P2;PMS_P1;PMS_P2;Temp;Humidity;BMP_temperature;BMP_pressure;BME280_temperature;BME280_humidity;BME280_pressure;Samples;Min_cycle;Max_cycle;Signal;HPM_P1;HPM_P2
2022/04/21 00:00:36;;;;;;;12.27;8.05;;;6.20;93.00;;;;;;5028035;28;20554;-85
2022/04/21 00:03:03;;;;;;;11.63;7.85;;;6.10;99.90;;;;;;5025751;28;20063;-85
2022/04/21 00:05:29;;;;;;;12.80;7.90;;;6.10;82.90;;;;;;5012877;28;20076;-85
2022/04/21 00:07:57;;;;;;;11.68;7.38;;;6.10;99.90;;;;;;5018006;28;20036;-85
2022/04/21 00:10:24;;;;;;;11.13;8.27;;;6.10;85.80;;;;;;5045522;28;20044;-85
2022/04/21 00:12:50;;;;;;;10.52;8.30;;;6.20;99.90;;;;;;5026098;28;20086;-85
2022/04/21 00:15:16;;;;;;;10.63;8.32;;;6.20;99.90;;;;;;5030065;28;20489;-85
2022/04/21 00:17:42;;;;;;;12.10;8.32;;;6.20;99.90;;;;;;5045773;28;20445;-85
2022/04/21 00:20:09;;;;;;;11.95;8.57;;;6.30;99.90;;;;;;5014146;28;20072;-86
2022/04/21 00:25:19;;;;;;;11.73;8.55;;;6.10;99.90;;;;;;5041660;28;20209;-85
2022/04/21 00:27:45;;;;;;;13.40;9.18;;;6.10;99.90;;;;;;5042963;28;20455;-86
2022/04/21 00:30:13;;;;;;;11.13;8.15;;;6.20;99.90;;;;;;5021533;28;20123;-86
2022/04/21 00:32:40;;;;;;;13.20;9.07;;;6.20;99.90;;;;;;5026944;28;20036;-85
2022/04/21 00:35:07;;;;;;;14.18;8.80;;;6.30;99.90;;;;;;5015446;28;20829;-86
2022/04/21 00:37:42;;;;;;;13.60;9.38;;;6.10;99.90;;;;;;5027701;28;20041;-85
2022/04/21 00:40:08;;;;;;;;;;;6.30;99.90;;;;;;5043142;28;20173;-85
2022/04/21 00:42:34;;;;;;;11.30;9.15;;;6.20;99.90;;;;;;5024775;28;19920;-85
2022/04/21 00:45:00;;;;;;;13.82;9.82;;;6.20;99.90;;;;;;5043778;28;20139;-85
2022/04/21 00:47:26;;;;;;;14.75;9.82;;;6.20;99.90;;;;;;5032728;28;20047;-85
2022/04/21 00:49:52;;;;;;;19.33;11.25;;;6.30;99.90;;;;;;5026611;28;20036;-85
2022/04/21 00:52:19;;;;;;;16.63;9.85;;;6.30;99.90;;;;;;5026769;28;20090;-84
2022/04/21 00:54:46;;;;;;;13.55;10.05;;;6.20;99.90;;;;;;5026902;28;20032;-84
2022/04/21 00:57:11;;;;;;;15.70;10.40;;;6.20;99.90;;;;;;5042635;28;20075;-84
2022/04/21 00:59:37;;;;;;;14.57;9.90;;;6.10;99.90;;;;;;5026981;28;20508;-85
2022/04/21 01:04:49;;;;;;;14.23;9.48;;;6.10;99.90;;;;;;5043623;28;20048;-86
2022/04/21 01:07:14;;;;;;;17.98;11.30;;;6.00;99.90;;;;;;5041685;28;20412;-85
2022/04/21 01:09:41;;;;;;;14.43;10.40;;;6.00;99.90;;;;;;5026613;28;20129;-85
2022/04/21 01:12:09;;;;;;;18.25;11.25;;;5.90;99.90;;;;;;5026057;28;20055;-85
2022/04/21 01:14:38;;;;;;;16.55;10.93;;;6.00;99.90;;;;;;5030137;28;20052;-85
2022/04/21 01:17:09;;;;;;;14.95;10.05;;;6.00;99.90;;;;;;5030880;28;20040;-85
2022/04/21 01:19:35;;;;;;;15.55;9.95;;;5.90;99.90;;;;;;5032703;28;20032;-85
2022/04/21 01:22:01;;;;;;;15.68;10.80;;;5.80;99.90;;;;;;5027045;28;20127;-85
2022/04/21 01:24:27;;;;;;;19.27;11.77;;;5.70;99.90;;;;;;5025922;28;20274;-85
2022/04/21 01:26:54;;;;;;;17.98;11.88;;;5.80;99.90;;;;;;5025978;28;20040;-85
2022/04/21 01:29:19;;;;;;;19.40;12.95;;;5.80;99.90;;;;;;5032985;28;20071;-85
2022/04/21 01:31:45;;;;;;;16.33;11.60;;;5.80;99.90;;;;;;5046385;28;20138;-85
2022/04/21 01:34:11;;;;;;;18.27;12.93;;;5.80;99.90;;;;;;5046137;28;20055;-84
2022/04/21 01:41:08;;;;;;;20.90;14.30;;;5.70;99.90;;;;;;5041969;28;20037;-85
2022/04/21 01:42:17;;;;;;;18.23;13.30;;;5.70;99.90;;;;;;5043942;28;20045;-85
2022/04/21 01:45:02;;;;;;;20.92;13.05;;;5.70;99.90;;;;;;4977245;28;20053;-84
2022/04/21 01:47:28;;;;;;;19.95;13.00;;;5.80;99.90;;;;;;5021354;28;20506;-84
2022/04/21 01:49:53;;;;;;;19.92;12.95;;;5.80;99.90;;;;;;5022001;28;20036;-85
2022/04/21 01:52:19;;;;;;;19.40;13.80;;;5.80;1.00;;;;;;5012845;28;20508;-85
2022/04/21 01:54:50;;;;;;;19.77;13.75;;;5.80;1.00;;;;;;5046328;28;20342;-85
2022/04/21 01:57:17;;;;;;;18.75;13.70;;;5.80;1.00;;;;;;5028935;28;20053;-85
2022/04/21 01:59:42;;;;;;;22.98;14.65;;;5.80;99.90;;;;;;5033806;28;20043;-85
2022/04/21 02:02:08;;;;;;;21.70;14.02;;;5.80;1.00;;;;;;5028120;28;20033;-85
2022/04/21 02:04:34;;;;;;;19.55;14.05;;;5.80;1.00;;;;;;5042743;28;20158;-85
2022/04/21 02:06:59;;;;;;;20.38;14.02;;;5.90;1.00;;;;;;5044653;28;20135;-85
2022/04/21 02:09:25;;;;;;;20.17;13.98;;;5.80;1.00;;;;;;5027344;28;20072;-85
2022/04/21 02:11:51;;;;;;;18.55;13.90;;;5.80;1.00;;;;;;5026849;28;20043;-85
2022/04/21 02:14:16;;;;;;;17.90;13.38;;;5.80;1.00;;;;;;5020499;28;20374;-85
2022/04/21 02:16:42;;;;;;;21.02;13.25;;;5.80;1.00;;;;;;5000365;28;20527;-85
2022/04/21 02:19:08;;;;;;;19.25;13.13;;;5.70;99.90;;;;;;5004855;28;20419;-84
2022/04/21 02:21:33;;;;;;;19.05;14.27;;;5.60;99.90;;;;;;5007550;28;20048;-85
2022/04/21 02:23:59;;;;;;;19.58;13.80;;;5.60;99.90;;;;;;5004363;28;20436;-85
2022/04/21 02:26:25;;;;;;;19.13;14.50;;;5.60;99.90;;;;;;5010669;28;20380;-84
2022/04/21 02:28:50;;;;;;;20.33;14.77;;;5.50;99.90;;;;;;5008614;28;20045;-85
2022/04/21 02:31:16;;;;;;;21.55;14.27;;;5.50;1.00;;;;;;5013347;28;20166;-85
2022/04/21 02:33:43;;;;;;;20.73;14.30;;;5.50;1.00;;;;;;5009107;28;20119;-84
2022/04/21 02:36:08;;;;;;;20.58;14.23;;;5.40;1.00;;;;;;5010179;28;20041;-84
2022/04/21 02:38:34;;;;;;;20.60;14.07;;;5.40;1.00;;;;;;5001927;28;20400;-84
2022/04/21 02:40:59;;;;;;;19.60;13.38;;;5.40;1.00;;;;;;5010371;28;20041;-85
2022/04/21 02:43:25;;;;;;;19.90;13.93;;;5.40;1.00;;;;;;5008102;28;20102;-85
2022/04/21 02:45:51;;;;;;;20.02;15.05;;;5.30;1.00;;;;;;5009749;28;20048;-85
2022/04/21 02:48:17;;;;;;;24.30;15.20;;;5.30;49.30;;;;;;5022578;28;20389;-85
2022/04/21 02:50:43;;;;;;;21.52;15.35;;;5.30;86.40;;;;;;5009017;28;20119;-85
2022/04/21 02:53:09;;;;;;;26.08;15.02;;;5.30;93.30;;;;;;5022270;28;20044;-85
2022/04/21 02:58:23;;;;;;;20.83;15.35;;;5.30;56.80;;;;;;5022526;28;20066;-85
2022/04/21 03:00:49;;;;;;;20.98;14.13;;;5.30;99.90;;;;;;5011376;28;20369;-85
2022/04/21 03:03:15;;;;;;;20.70;15.88;;;5.40;89.10;;;;;;5006139;28;20056;-85
2022/04/21 03:05:41;;;;;;;22.33;14.52;;;5.40;99.90;;;;;;5011010;28;20132;-84
2022/04/21 03:08:07;;;;;;;19.05;14.05;;;5.40;1.00;;;;;;5024928;28;20508;-85
2022/04/21 03:10:33;;;;;;;20.92;14.38;;;5.40;1.00;;;;;;5010675;28;20131;-85
2022/04/21 03:12:59;;;;;;;20.13;13.82;;;5.40;1.00;;;;;;5008072;28;20476;-85
2022/04/21 03:15:25;;;;;;;18.45;13.77;;;5.40;1.00;;;;;;5036051;28;20182;-85
2022/04/21 03:17:51;;;;;;;18.45;13.77;;;5.40;1.00;;;;;;5045417;28;20354;-85
2022/04/21 03:25:46;;;;;;;19.90;13.05;;;5.50;1.00;;;;;;5062281;28;20058;-85
2022/04/21 03:28:12;;;;;;;19.67;12.93;;;5.40;1.00;;;;;;5029049;28;20359;-85
2022/04/21 03:30:38;;;;;;;17.02;11.75;;;5.40;1.00;;;;;;5030951;28;20496;-85
2022/04/21 03:33:04;;;;;;;16.55;11.63;;;5.40;99.90;;;;;;5029424;28;20079;-85
2022/04/21 03:35:30;;;;;;;15.77;11.07;;;5.40;99.90;;;;;;5028150;28;20056;-85
2022/04/21 03:37:55;;;;;;;17.48;11.88;;;5.50;99.90;;;;;;5015037;28;20135;-85
2022/04/21 03:40:21;;;;;;;13.45;10.65;;;5.50;99.90;;;;;;5025466;28;20063;-85
2022/04/21 03:42:47;;;;;;;16.42;11.30;;;5.60;99.90;;;;;;5017502;28;20072;-84
2022/04/21 03:45:13;;;;;;;16.13;10.73;;;5.60;99.90;;;;;;5030183;28;20397;-85
2022/04/21 03:47:39;;;;;;;13.48;10.85;;;5.60;99.90;;;;;;5027402;28;20040;-85
2022/04/21 03:50:05;;;;;;;15.48;10.77;;;5.60;99.90;;;;;;5046257;28;20161;-84
2022/04/21 03:52:31;;;;;;;15.70;10.70;;;5.60;99.90;;;;;;5045391;28;20037;-85
2022/04/21 03:54:57;;;;;;;14.05;10.48;;;5.60;99.90;;;;;;5028561;28;20041;-84
2022/04/21 03:57:25;;;;;;;14.35;10.57;;;5.60;99.90;;;;;;5024702;28;20055;-85
2022/04/21 03:59:51;;;;;;;17.05;11.15;;;5.50;99.90;;;;;;5046152;28;20175;-85
2022/04/21 04:02:17;;;;;;;14.45;10.40;;;5.50;99.90;;;;;;5025042;28;20116;-85
2022/04/21 04:04:45;;;;;;;14.93;10.93;;;5.60;99.90;;;;;;5027811;28;20625;-85
2022/04/21 04:12:40;;;;;;;13.90;10.85;;;5.60;99.90;;;;;;5046520;28;20323;-85
2022/04/21 04:15:10;;;;;;;12.63;9.73;;;5.50;99.90;;;;;;5031891;28;20067;-85
2022/04/21 04:17:36;;;;;;;14.77;9.98;;;5.60;99.90;;;;;;5041002;28;20114;-85
2022/04/21 04:20:04;;;;;;;13.68;10.45;;;5.60;99.90;;;;;;5027085;28;20041;-85
2022/04/21 04:22:35;;;;;;;13.00;10.63;;;5.50;99.90;;;;;;5024639;28;20467;-85
2022/04/21 04:25:01;;;;;;;15.38;10.60;;;5.50;99.90;;;;;;5026989;28;20150;-85
2022/04/21 04:27:26;;;;;;;14.15;10.38;;;5.40;99.90;;;;;;5026405;28;20049;-85
2022/04/21 04:29:52;;;;;;;16.35;10.93;;;5.40;99.90;;;;;;5022237;28;20040;-86
2022/04/21 04:32:18;;;;;;;13.52;10.13;;;5.40;99.90;;;;;;5029263;28;20419;-85
2022/04/21 04:34:44;;;;;;;13.50;10.88;;;5.40;99.90;;;;;;5027125;28;20267;-85
2022/04/21 04:37:10;;;;;;;13.23;10.05;;;5.40;99.90;;;;;;5044340;28;20618;-85
2022/04/21 04:39:36;;;;;;;13.05;10.43;;;5.40;99.90;;;;;;5026216;28;20135;-85
2022/04/21 04:42:16;;;;;;;14.63;10.30;;;5.40;99.90;;;;;;5041472;28;20185;-85
2022/04/21 04:44:46;;;;;;;15.73;11.63;;;5.30;99.90;;;;;;5026057;28;20066;-84
2022/04/21 04:47:12;;;;;;;13.27;10.23;;;5.30;99.90;;;;;;5031120;28;20032;-85
2022/04/21 04:49:38;;;;;;;14.57;11.32;;;5.30;99.90;;;;;;5024074;28;20182;-86
2022/04/21 04:52:05;;;;;;;14.52;11.65;;;5.30;99.90;;;;;;5029831;28;20219;-85
2022/04/21 04:54:31;;;;;;;16.95;12.25;;;5.30;99.90;;;;;;5031776;28;20048;-86
2022/04/21 04:56:57;;;;;;;16.60;11.95;;;5.30;99.90;;;;;;5043809;28;22074;-85
2022/04/21 04:59:27;;;;;;;16.30;11.90;;;5.30;99.90;;;;;;5021189;28;20037;-85
2022/04/21 05:01:53;;;;;;;16.02;12.07;;;5.40;99.90;;;;;;5032967;28;20037;-85
2022/04/21 05:04:20;;;;;;;19.88;12.52;;;5.40;99.90;;;;;;5020036;28;20500;-85
2022/04/21 05:06:47;;;;;;;19.42;12.30;;;5.50;99.90;;;;;;5022710;28;20051;-86
2022/04/21 05:09:15;;;;;;;19.05;12.50;;;5.50;99.90;;;;;;5041690;28;20040;-85
2022/04/21 05:11:43;;;;;;;20.35;11.95;;;5.60;99.90;;;;;;5045010;28;20052;-85
2022/04/21 05:14:10;;;;;;;16.20;11.35;;;5.70;99.90;;;;;;5027374;28;20056;-85
2022/04/21 05:16:42;;;;;;;16.67;11.95;;;5.70;99.90;;;;;;5031191;28;20048;-85
2022/04/21 05:19:09;;;;;;;18.17;11.45;;;5.80;99.90;;;;;;5057655;28;20484;-85
2022/04/21 05:21:36;;;;;;;15.65;10.85;;;5.90;99.90;;;;;;5043412;28;20112;-86
2022/04/21 05:24:04;;;;;;;18.48;11.43;;;6.00;99.90;;;;;;5025632;28;20033;-86
2022/04/21 05:26:31;;;;;;;14.32;10.70;;;6.10;99.90;;;;;;5043371;28;20044;-87
2022/04/21 05:28:58;;;;;;;16.30;11.57;;;6.20;99.90;;;;;;5019385;28;20064;-86
2022/04/21 05:31:28;;;;;;;14.23;10.93;;;6.30;99.90;;;;;;5027357;28;20032;-85
2022/04/21 05:33:55;;;;;;;15.25;10.75;;;6.40;99.90;;;;;;5026582;28;20041;-86
2022/04/21 05:36:24;;;;;;;18.30;11.07;;;6.50;99.90;;;;;;5040311;28;20094;-85
2022/04/21 05:38:50;;;;;;;15.82;10.55;;;6.60;99.90;;;;;;5041341;28;20032;-85
2022/04/21 05:41:18;;;;;;;14.02;10.48;;;6.80;99.90;;;;;;5025713;28;20032;-86
2022/04/21 05:43:46;;;;;;;13.52;10.65;;;6.90;99.90;;;;;;5025779;28;20693;-85
2022/04/21 05:46:14;;;;;;;16.38;11.27;;;7.00;99.90;;;;;;5025534;28;20063;-85
2022/04/21 05:48:48;;;;;;;15.95;11.05;;;7.10;99.90;;;;;;5038805;28;20657;-85
2022/04/21 05:51:15;;;;;;;14.50;10.27;;;7.10;99.90;;;;;;5009914;28;20113;-85
2022/04/21 05:53:48;;;;;;;13.80;10.23;;;7.30;99.90;;;;;;5027069;28;20116;-86
2022/04/21 05:56:14;;;;;;;16.42;10.30;;;7.40;99.90;;;;;;5043255;28;20048;-85
2022/04/21 05:58:40;;;;;;;14.25;10.85;;;7.50;99.90;;;;;;5042713;28;20033;-85
2022/04/21 06:01:08;;;;;;;13.18;9.70;;;7.60;99.90;;;;;;5030919;28;20059;-85
2022/04/21 06:03:37;;;;;;;12.00;9.70;;;7.80;99.90;;;;;;5026306;28;20037;-86
2022/04/21 06:06:04;;;;;;;13.43;9.77;;;7.90;99.90;;;;;;5029981;28;20036;-86
2022/04/21 06:08:30;;;;;;;12.38;9.40;;;8.00;99.90;;;;;;5030061;28;20044;-85
2022/04/21 06:10:56;;;;;;;10.95;8.85;;;8.10;99.90;;;;;;5048179;28;20045;-85
2022/04/21 06:13:23;;;;;;;12.98;8.68;;;8.30;82.50;;;;;;5031819;28;20052;-85
2022/04/21 06:15:49;;;;;;;11.25;8.52;;;8.40;52.10;;;;;;5047696;28;20055;-85
2022/04/21 06:18:14;;;;;;;11.25;8.10;;;8.50;23.20;;;;;;5028246;28;20040;-85
2022/04/21 06:20:40;;;;;;;10.25;7.60;;;8.60;1.00;;;;;;5029637;28;20403;-85
2022/04/21 06:23:06;;;;;;;12.48;8.27;;;8.70;1.00;;;;;;5026685;28;20040;-85
2022/04/21 06:25:32;;;;;;;9.13;7.47;;;8.80;1.00;;;;;;5021553;28;20788;-85
2022/04/21 06:27:57;;;;;;;11.68;8.32;;;8.90;1.00;;;;;;5030209;28;20044;-85
2022/04/21 06:30:24;;;;;;;8.23;7.35;;;9.00;1.00;;;;;;5031002;28;20055;-86
2022/04/21 06:32:49;;;;;;;10.40;7.60;;;9.10;1.00;;;;;;5027584;28;20047;-85
2022/04/21 06:35:16;;;;;;;10.10;7.05;;;9.30;1.00;;;;;;5035907;28;20036;-85
2022/04/21 06:37:42;;;;;;;8.70;6.78;;;9.30;1.00;;;;;;5030641;28;20044;-85
2022/04/21 06:40:08;;;;;;;12.35;6.90;;;9.30;1.00;;;;;;5041332;28;20569;-85
2022/04/21 06:42:35;;;;;;;9.05;6.80;;;9.50;1.00;;;;;;5028849;28;20499;-85
2022/04/21 06:48:01;;;;;;;8.07;6.45;;;9.60;1.00;;;;;;5039959;28;20137;-85
2022/04/21 06:50:38;;;;;;;7.55;6.38;;;9.70;1.00;;;;;;5027262;28;20135;-85
2022/04/21 06:53:08;;;;;;;9.88;6.38;;;9.80;1.00;;;;;;5029540;28;20052;-85
2022/04/21 06:55:34;;;;;;;9.48;6.28;;;9.90;99.90;;;;;;5030576;28;20044;-85
2022/04/21 06:58:01;;;;;;;11.23;6.65;;;10.10;99.90;;;;;;5022208;28;20408;-84
2022/04/21 07:00:28;;;;;;;7.72;5.93;;;10.20;99.90;;;;;;5033774;28;20048;-85
2022/04/21 07:02:55;;;;;;;7.03;5.45;;;10.20;99.90;;;;;;5032345;28;20033;-86
2022/04/21 07:05:22;;;;;;;7.55;5.80;;;10.30;99.90;;;;;;5030556;28;20376;-87
2022/04/21 07:07:48;;;;;;;6.60;5.13;;;10.40;99.90;;;;;;5025208;28;20032;-86
2022/04/21 07:10:14;;;;;;;6.30;5.20;;;10.50;99.90;;;;;;5032386;28;20039;-86
2022/04/21 07:12:40;;;;;;;6.88;5.53;;;10.70;99.90;;;;;;5029109;28;20041;-85
2022/04/21 07:15:10;;;;;;;7.40;5.55;;;10.70;99.90;;;;;;5030993;28;20048;-87
2022/04/21 07:17:37;;;;;;;8.57;5.47;;;10.90;99.90;;;;;;5026263;28;20598;-87
2022/04/21 07:20:05;;;;;;;5.65;5.05;;;11.00;99.90;;;;;;5023717;28;20112;-86
2022/04/21 07:22:31;;;;;;;7.50;5.00;;;11.00;99.90;;;;;;5037304;28;20036;-86
2022/04/21 07:24:58;;;;;;;7.20;4.88;;;11.10;99.90;;;;;;5058861;28;20508;-85
2022/04/21 07:27:26;;;;;;;9.30;4.80;;;11.30;99.90;;;;;;5029124;28;20055;-86
2022/04/21 07:29:52;;;;;;;5.18;4.38;;;11.40;99.90;;;;;;5026402;28;20060;-86
2022/04/21 07:32:18;;;;;;;7.13;4.65;;;11.50;99.90;;;;;;5027517;28;20063;-85
2022/04/21 07:34:44;;;;;;;6.10;3.92;;;11.60;99.90;;;;;;5030822;28;20539;-86
2022/04/21 07:37:10;;;;;;;4.40;4.00;;;11.60;99.90;;;;;;5029412;28;20059;-86
2022/04/21 07:39:42;;;;;;;4.68;3.50;;;11.70;99.90;;;;;;5037450;28;20044;-86
2022/04/21 07:42:09;;;;;;;4.93;3.97;;;11.80;99.90;;;;;;5026469;28;20024;-87
2022/04/21 07:44:35;;;;;;;5.78;4.20;;;11.90;99.90;;;;;;5032402;28;20060;-87
2022/04/21 07:47:02;;;;;;;4.75;4.25;;;12.00;99.90;;;;;;5030942;28;20533;-87
2022/04/21 07:49:49;;;;;;;9.32;4.20;;;12.00;99.90;;;;;;5025571;28;20814;-86
2022/04/21 07:55:13;;;;;;;11.20;4.82;;;12.30;99.90;;;;;;5028885;28;20079;-86
2022/04/21 07:57:40;;;;;;;4.80;3.70;;;12.30;99.90;;;;;;5029099;28;20514;-86
2022/04/21 08:00:07;;;;;;;5.88;3.28;;;12.30;99.90;;;;;;5021419;28;20036;-86
2022/04/21 08:02:33;;;;;;;5.10;3.20;;;12.40;99.90;;;;;;5028264;28;20064;-85
2022/04/21 08:04:59;;;;;;;7.68;3.65;;;12.50;99.90;;;;;;5026898;28;20068;-86
2022/04/21 08:07:25;;;;;;;4.50;3.38;;;12.60;99.90;;;;;;5044293;28;20120;-86
2022/04/21 08:09:51;;;;;;;4.18;3.30;;;12.70;99.90;;;;;;5046727;28;20051;-87
2022/04/21 08:12:17;;;;;;;5.65;3.45;;;12.80;99.90;;;;;;5033897;28;20044;-86
2022/04/21 08:14:42;;;;;;;4.25;3.17;;;12.80;99.90;;;;;;5030526;28;20045;-86
2022/04/21 08:17:08;;;;;;;6.00;3.30;;;13.00;99.90;;;;;;5029049;28;20086;-85
2022/04/21 08:19:34;;;;;;;6.03;3.63;;;13.00;99.90;;;;;;5026888;28;20471;-86
2022/04/21 08:22:00;;;;;;;4.15;3.22;;;13.00;99.90;;;;;;5028634;28;20040;-86
2022/04/21 08:32:43;;;;;;;5.70;2.97;;;13.40;99.90;;;;;;5041700;28;20029;-86
2022/04/21 08:35:13;;;;;;;3.20;2.80;;;13.40;99.90;;;;;;5026790;28;20117;-87
2022/04/21 08:37:42;;;;;;;4.13;3.20;;;13.60;99.90;;;;;;5028286;28;20132;-86
2022/04/21 08:40:15;;;;;;;4.50;3.50;;;13.80;99.90;;;;;;5044875;28;20068;-85
2022/04/21 08:42:41;;;;;;;3.58;3.22;;;13.80;99.90;;;;;;5042344;28;20405;-85
2022/04/21 08:45:09;;;;;;;4.43;3.28;;;13.90;99.90;;;;;;5023189;28;20451;-85
2022/04/21 08:47:39;;;;;;;5.95;3.60;;;14.10;99.90;;;;;;5026446;28;20393;-87
2022/04/21 08:50:09;;;;;;;7.22;4.28;;;14.10;99.90;;;;;;5026308;28;20050;-86
2022/04/21 08:52:35;;;;;;;6.93;3.55;;;14.00;99.90;;;;;;5039100;28;20267;-86
2022/04/21 08:55:03;;;;;;;4.85;3.42;;;14.20;99.90;;;;;;5025802;28;20607;-85
2022/04/21 08:57:30;;;;;;;4.40;3.38;;;14.30;99.90;;;;;;5027163;28;20124;-84
2022/04/21 08:59:57;;;;;;;4.03;3.42;;;14.50;99.90;;;;;;5022122;28;20498;-86
2022/04/21 09:02:34;;;;;;;4.97;3.30;;;14.40;99.90;;;;;;5027031;28;20635;-85
2022/04/21 09:05:03;;;;;;;5.63;3.55;;;14.60;99.90;;;;;;5022754;28;20082;-85
2022/04/21 09:07:28;;;;;;;7.80;3.78;;;14.70;99.90;;;;;;5027442;28;20365;-86
2022/04/21 09:10:07;;;;;;;6.45;3.50;;;14.90;99.90;;;;;;5045126;28;20050;-85
2022/04/21 09:12:50;;;;;;;5.05;3.75;;;14.90;99.90;;;;;;5028412;28;20098;-88
2022/04/21 09:15:17;;;;;;;6.80;3.80;;;14.90;99.90;;;;;;5029253;28;20064;-86
2022/04/21 09:17:57;;;;;;;5.35;3.83;;;15.00;99.90;;;;;;5025349;28;20040;-86
2022/04/21 09:20:33;;;;;;;4.47;3.88;;;15.00;99.90;;;;;;5047798;28;20511;-86
2022/04/21 09:23:00;;;;;;;6.50;4.20;;;15.00;99.90;;;;;;5026740;28;20037;-86
2022/04/21 09:25:33;;;;;;;5.40;4.18;;;15.10;99.90;;;;;;5026151;28;20538;-85
2022/04/21 09:28:02;;;;;;;5.35;4.15;;;15.40;99.90;;;;;;5035356;28;20340;-85
2022/04/21 09:30:28;;;;;;;5.90;4.30;;;15.40;99.90;;;;;;5042783;28;20419;-85
2022/04/21 09:32:56;;;;;;;6.88;3.70;;;15.30;99.90;;;;;;5025202;28;20115;-86
2022/04/21 09:35:28;;;;;;;4.78;3.83;;;15.30;99.90;;;;;;5026139;28;20487;-86
2022/04/21 09:37:56;;;;;;;7.88;4.32;;;15.40;99.90;;;;;;5024003;28;20044;-86
2022/04/21 09:40:25;;;;;;;5.95;3.92;;;15.30;99.90;;;;;;5042810;28;20037;-86
2022/04/21 09:42:59;;;;;;;5.40;4.40;;;15.50;99.90;;;;;;5026129;28;20043;-86
2022/04/21 09:48:23;;;;;;;6.20;4.13;;;15.60;99.90;;;;;;5040138;28;20427;-86
2022/04/21 09:50:54;;;;;;;4.85;3.92;;;15.70;99.90;;;;;;5027311;28;20035;-87
2022/04/21 09:53:24;;;;;;;7.07;3.83;;;15.80;99.90;;;;;;5025081;28;20082;-86
2022/04/21 09:56:08;;;;;;;5.38;3.55;;;16.10;99.90;;;;;;5044216;28;20044;-85
2022/04/21 09:58:41;;;;;;;6.60;3.85;;;15.70;99.90;;;;;;5026202;28;20123;-85
2022/04/21 10:01:08;;;;;;;7.60;4.18;;;15.80;99.90;;;;;;5031179;28;20049;-85
2022/04/21 10:03:34;;;;;;;5.68;3.60;;;15.90;99.90;;;;;;5023207;28;20331;-86
2022/04/21 10:06:01;;;;;;;7.07;3.80;;;16.10;99.90;;;;;;5024511;28;20240;-85
2022/04/21 10:08:29;;;;;;;9.00;3.72;;;15.90;99.90;;;;;;5026129;28;20044;-85
2022/04/21 10:10:55;;;;;;;4.32;3.92;;;16.10;99.90;;;;;;5027479;28;20370;-85
2022/04/21 10:13:21;;;;;;;8.82;3.55;;;16.10;99.90;;;;;;5024636;28;20057;-86
2022/04/21 10:15:47;;;;;;;7.35;3.63;;;16.20;99.90;;;;;;4992462;28;20448;-85
2022/04/21 10:18:15;;;;;;;8.73;3.75;;;16.30;99.90;;;;;;5018351;28;20034;-85
2022/04/21 10:20:42;;;;;;;3.88;3.47;;;16.20;99.90;;;;;;4990594;28;20058;-86
2022/04/21 10:23:16;;;;;;;6.68;3.78;;;16.20;99.90;;;;;;4999012;28;20083;-85
2022/04/21 10:25:45;;;;;;;6.80;3.63;;;16.40;99.90;;;;;;5017491;28;20310;-85
2022/04/21 10:28:34;;;;;;;5.22;3.25;;;16.60;99.90;;;;;;5004123;28;20112;-86
2022/04/21 10:31:33;;;;;;;4.07;3.00;;;16.80;99.90;;;;;;5015014;28;20031;-86
2022/04/21 10:34:00;;;;;;;4.32;2.90;;;16.50;99.90;;;;;;4993436;28;20065;-85
2022/04/21 10:36:47;;;;;;;4.07;3.00;;;16.40;99.90;;;;;;5005742;28;20124;-85
2022/04/21 10:39:18;;;;;;;6.22;2.97;;;16.50;99.90;;;;;;5004315;28;20151;-85
2022/04/21 10:41:45;;;;;;;3.72;3.05;;;16.60;99.90;;;;;;5005283;28;20481;-85
2022/04/21 10:44:47;;;;;;;4.63;3.40;;;16.60;99.90;;;;;;5006324;28;20037;-86
2022/04/21 10:47:31;;;;;;;4.30;3.38;;;17.00;99.90;;;;;;5007068;28;20141;-86
2022/04/21 10:50:02;;;;;;;4.78;2.90;;;17.00;99.90;;;;;;5008026;28;20036;-85
2022/04/21 10:58:34;;;;;;;3.40;3.10;;;17.10;99.90;;;;;;5026307;28;20451;-86
2022/04/21 11:01:19;;;;;;;3.40;2.90;;;17.50;99.90;;;;;;5015153;28;20033;-85
2022/04/21 11:04:03;;;;;;;5.07;3.40;;;17.30;99.90;;;;;;5010256;28;20033;-85
2022/04/21 11:06:54;;;;;;;5.00;3.30;;;17.30;99.90;;;;;;5004579;28;20060;-86
2022/04/21 11:09:39;;;;;;;5.95;3.17;;;17.60;99.90;;;;;;5014731;28;20425;-87
2022/04/21 11:12:06;;;;;;;4.93;3.20;;;17.70;99.90;;;;;;5011454;28;20064;-85
2022/04/21 11:14:34;;;;;;;7.97;3.50;;;18.00;99.90;;;;;;5017597;28;20059;-86
2022/04/21 11:17:04;;;;;;;4.97;3.67;;;18.00;99.90;;;;;;5027929;28;20093;-85
2022/04/21 11:19:33;;;;;;;4.22;3.38;;;18.10;99.90;;;;;;5017826;28;20067;-86
2022/04/21 11:22:13;;;;;;;4.68;3.00;;;18.00;99.90;;;;;;5027336;28;20052;-85
2022/04/21 11:24:58;;;;;;;4.68;3.63;;;18.30;99.90;;;;;;5029653;28;20132;-86
2022/04/21 11:27:26;;;;;;;6.18;3.70;;;18.30;99.90;;;;;;5030305;28;20073;-86
2022/04/21 11:29:52;;;;;;;7.47;3.50;;;18.50;99.90;;;;;;5038476;28;20054;-86
2022/04/21 11:32:19;;;;;;;4.15;3.20;;;18.60;99.90;;;;;;5030057;28;20047;-86
2022/04/21 11:34:57;;;;;;;4.35;3.67;;;18.60;99.90;;;;;;5028891;28;20086;-87
2022/04/21 11:37:23;;;;;;;4.50;3.30;;;18.70;99.90;;;;;;5045977;28;20171;-85
2022/04/21 11:39:48;;;;;;;3.70;3.35;;;18.60;99.90;;;;;;5028513;28;20116;-86
2022/04/21 11:42:26;;;;;;;5.20;3.50;;;18.20;99.90;;;;;;5036274;28;20043;-85
2022/04/21 11:44:51;;;;;;;7.35;3.60;;;18.30;99.90;;;;;;5046594;28;20090;-86
2022/04/21 11:47:26;;;;;;;4.35;3.30;;;18.20;99.90;;;;;;5053839;28;20503;-87
2022/04/21 11:50:00;;;;;;;5.65;3.22;;;18.10;99.90;;;;;;5025690;28;20126;-85
2022/04/21 11:52:27;;;;;;;3.75;3.33;;;18.60;99.90;;;;;;5029434;28;20063;-86
2022/04/21 11:55:03;;;;;;;4.78;3.78;;;18.60;99.90;;;;;;5028607;28;20480;-86
2022/04/21 11:57:59;;;;;;;4.07;3.33;;;18.70;99.90;;;;;;5026149;28;20037;-86
2022/04/21 12:08:48;;;;;;;6.23;3.47;;;18.50;99.90;;;;;;5045092;28;19939;-86
2022/04/21 12:11:19;;;;;;;4.43;3.60;;;18.80;99.90;;;;;;5029859;28;20344;-86
2022/04/21 12:13:47;;;;;;;5.88;3.15;;;18.10;99.90;;;;;;5026955;28;20090;-87
2022/04/21 12:16:41;;;;;;;10.80;3.58;;;17.70;99.90;;;;;;5043874;28;20076;-87
2022/04/21 12:19:10;;;;;;;3.97;3.50;;;18.30;99.90;;;;;;5022647;28;20125;-86
2022/04/21 12:21:36;;;;;;;5.18;3.60;;;19.20;99.90;;;;;;5029284;28;20256;-85
2022/04/21 12:24:17;;;;;;;5.80;3.30;;;19.40;99.90;;;;;;5025189;28;20429;-87
2022/04/21 12:26:48;;;;;;;5.50;3.10;;;18.90;99.90;;;;;;5034334;28;20079;-86
2022/04/21 12:29:14;;;;;;;5.82;3.42;;;18.40;99.90;;;;;;5026499;28;20048;-86
2022/04/21 12:31:58;;;;;;;4.05;3.33;;;18.30;99.90;;;;;;5021063;28;20099;-87
2022/04/21 12:34:29;;;;;;;5.07;3.72;;;18.30;99.90;;;;;;5016497;28;20214;-86
2022/04/21 12:36:57;;;;;;;4.82;3.97;;;18.40;99.90;;;;;;5035430;28;20461;-86
2022/04/21 12:39:25;;;;;;;3.88;3.55;;;18.30;99.90;;;;;;5026777;28;20090;-86
2022/04/21 12:41:52;;;;;;;5.85;3.63;;;18.20;99.90;;;;;;5060611;28;20037;-87
2022/04/21 12:44:19;;;;;;;3.95;3.55;;;18.30;99.90;;;;;;5030796;28;20491;-87
2022/04/21 12:47:00;;;;;;;6.00;3.67;;;18.70;99.90;;;;;;5022022;28;20047;-86
2022/04/21 12:49:58;;;;;;;5.30;3.80;;;18.50;99.90;;;;;;5017046;28;20048;-86
2022/04/21 12:52:42;;;;;;;4.60;3.45;;;18.20;99.90;;;;;;5026142;28;20048;-86
2022/04/21 12:55:20;;;;;;;5.78;3.50;;;18.70;99.90;;;;;;5028053;28;20032;-87
2022/04/21 12:58:27;;;;;;;4.38;3.92;;;19.30;99.90;;;;;;5023523;28;20466;-86
2022/04/21 13:00:53;;;;;;;4.30;3.58;;;18.90;99.90;;;;;;5015426;28;20132;-87
2022/04/21 13:03:18;;;;;;;5.72;3.53;;;19.30;99.90;;;;;;5026665;28;20123;-87
2022/04/21 13:05:55;;;;;;;4.32;3.88;;;19.30;99.90;;;;;;5028004;28;20523;-86
2022/04/21 13:08:28;;;;;;;4.88;4.00;;;19.00;99.90;;;;;;5033686;28;20279;-87
2022/04/21 13:10:56;;;;;;;5.68;3.90;;;19.00;99.90;;;;;;5036230;28;20245;-86
2022/04/21 13:13:22;;;;;;;4.43;3.72;;;19.40;99.90;;;;;;5039271;28;20061;-86
2022/04/21 13:15:48;;;;;;;4.40;3.72;;;20.00;99.90;;;;;;5029986;28;20040;-86
2022/04/21 13:18:15;;;;;;;4.80;3.40;;;19.80;99.90;;;;;;5023529;28;20472;-86
2022/04/21 13:23:27;;;;;;;3.75;3.30;;;20.10;99.90;;;;;;5051089;28;20107;-86
2022/04/21 13:25:53;;;;;;;4.82;3.22;;;20.10;99.90;;;;;;5057534;28;20552;-86
2022/04/21 13:28:20;;;;;;;5.00;4.03;;;20.30;99.90;;;;;;5064516;28;20045;-87
2022/04/21 13:30:46;;;;;;;4.07;3.47;;;19.80;99.90;;;;;;5043673;28;20036;-86
2022/04/21 13:33:23;;;;;;;4.28;3.88;;;19.80;99.90;;;;;;5025659;28;20032;-87
2022/04/21 13:35:53;;;;;;;4.32;3.78;;;20.40;99.90;;;;;;5069456;28;20250;-86
2022/04/21 13:38:19;;;;;;;6.22;3.78;;;19.30;99.90;;;;;;5078954;28;20068;-86
2022/04/21 13:40:46;;;;;;;10.50;4.28;;;19.60;99.90;;;;;;5024483;28;20095;-88
2022/04/21 13:43:12;;;;;;;4.43;3.80;;;19.90;99.90;;;;;;5045577;28;20530;-86
2022/04/21 13:45:38;;;;;;;4.53;4.05;;;20.40;99.90;;;;;;5030815;28;20072;-87
2022/04/21 13:48:06;;;;;;;5.32;4.05;;;20.90;99.90;;;;;;5024738;28;20037;-86
2022/04/21 13:50:32;;;;;;;6.75;4.50;;;21.00;99.90;;;;;;5054998;28;20083;-87